Terminal Aerodrome Forecast
Issued by NWS

Home | Current Version | Previous Version | Text Only | Print | Product List | Glossary On
Versions: 1 2 3 4 5 6 7 8 9 10 11 12 13 14 15 16 17 18 19 20 21
867
FTUS43 KDDC 221722
TAFHYS
TAF
KHYS 221722Z 2218/2318 15015G22KT P6SM OVC020
     FM230100 13011KT P6SM OVC007
     FM231300 13012KT 6SM -SHRA BR OVC003=

USA.gov is the U.S. government's official web portal to all federal, state and local government web resources and services.